createdAt,value
2022-09-01T00:00:18.419Z,99205.94
2022-09-01T00:02:45.265Z,99211.16
2022-09-01T00:05:12.063Z,99212.56
2022-09-01T00:07:38.482Z,99204.94
2022-09-01T00:10:05.244Z,99204.25
2022-09-01T00:12:32.173Z,99211.16
2022-09-01T00:14:58.884Z,99203.66
2022-09-01T00:17:26.129Z,99199.28
2022-09-01T00:19:52.671Z,99215.59
2022-09-01T00:22:20.129Z,99206.03
2022-09-01T00:24:46.887Z,99199.88
2022-09-01T00:27:13.383Z,99203.28
2022-09-01T00:29:43.424Z,99191.25
2022-09-01T00:32:10.936Z,99198.50
2022-09-01T00:34:37.459Z,99203.09
2022-09-01T00:37:04.348Z,99197.59
2022-09-01T00:39:30.875Z,99196.97
2022-09-01T00:41:57.701Z,99197.06
2022-09-01T00:44:24.712Z,99192.34
2022-09-01T00:46:55.144Z,99195.38
2022-09-01T00:49:22.228Z,99193.91
2022-09-01T00:51:48.687Z,99187.22
2022-09-01T00:54:15.512Z,99185.06
2022-09-01T00:56:42.115Z,99185.00
2022-09-01T00:59:13.564Z,99189.31
2022-09-01T01:01:41.319Z,99177.53
2022-09-01T01:04:08.045Z,99183.06
2022-09-01T01:06:34.613Z,99178.03
2022-09-01T01:09:03.282Z,99179.56
2022-09-01T01:11:29.885Z,99176.38
2022-09-01T01:13:57.157Z,99182.13
2022-09-01T01:16:24.668Z,99183.44
2022-09-01T01:18:51.248Z,99179.19
2022-09-01T01:21:17.852Z,99194.72
2022-09-01T01:23:44.800Z,99184.28
2022-09-01T01:26:12.002Z,99180.41
2022-09-01T01:28:38.800Z,99181.50
2022-09-01T01:31:05.606Z,99184.97
2022-09-01T01:33:32.161Z,99179.78
2022-09-01T01:35:58.766Z,99178.00
2022-09-01T01:38:25.547Z,99184.19
2022-09-01T01:40:52.079Z,99186.56
2022-09-01T01:43:21.333Z,99185.09
2022-09-01T01:45:48.156Z,99184.16
2022-09-01T01:48:14.702Z,99183.44
2022-09-01T01:50:41.182Z,99183.44
2022-09-01T01:53:10.997Z,99180.84
2022-09-01T01:55:37.880Z,99172.69
2022-09-01T01:58:05.931Z,99169.91
2022-09-01T02:00:32.537Z,99165.03
2022-09-01T02:02:58.969Z,99159.88
2022-09-01T02:05:25.452Z,99168.56
2022-09-01T02:07:52.152Z,99157.44
2022-09-01T02:10:19.090Z,99160.22
2022-09-01T02:12:45.734Z,99160.22
2022-09-01T02:15:12.211Z,99152.47
2022-09-01T02:17:38.640Z,99158.06
2022-09-01T02:20:05.072Z,99152.06
2022-09-01T02:22:31.811Z,99141.97
2022-09-01T02:24:58.275Z,99138.69
2022-09-01T02:27:24.941Z,99148.03
2022-09-01T02:29:51.689Z,99141.22
2022-09-01T02:32:18.093Z,99157.22
2022-09-01T02:34:44.639Z,99155.13
2022-09-01T02:37:11.487Z,99151.28
2022-09-01T02:39:38.462Z,99163.94
2022-09-01T02:42:04.929Z,99161.97
2022-09-01T02:44:31.552Z,99158.81
2022-09-01T02:46:58.144Z,99168.09
2022-09-01T02:49:24.773Z,99152.34
2022-09-01T02:51:51.596Z,99161.66
2022-09-01T02:54:17.993Z,99163.22
2022-09-01T02:56:44.398Z,99162.50
2022-09-01T02:59:11.431Z,99161.56
2022-09-01T03:01:37.960Z,99164.09
2022-09-01T03:04:04.526Z,99167.34
2022-09-01T03:06:31.000Z,99175.13
2022-09-01T03:08:57.426Z,99173.16
2022-09-01T03:11:23.864Z,99174.50
2022-09-01T03:13:50.839Z,99173.88
2022-09-01T03:16:17.369Z,99174.25
2022-09-01T03:18:43.896Z,99180.41
2022-09-01T03:21:10.423Z,99166.69
2022-09-01T03:23:36.848Z,99166.75
2022-09-01T03:26:03.331Z,99165.69
2022-09-01T03:28:30.034Z,99164.81
2022-09-01T03:30:56.589Z,99158.59
2022-09-01T03:33:23.356Z,99162.91
2022-09-01T03:35:50.166Z,99150.06
2022-09-01T03:38:16.607Z,99156.47
2022-09-01T03:40:43.305Z,99153.50
2022-09-01T03:43:09.877Z,99159.03
2022-09-01T03:45:39.424Z,99164.22
2022-09-01T03:48:06.163Z,99158.16
2022-09-01T03:50:32.975Z,99158.16
2022-09-01T03:52:59.422Z,99148.47
2022-09-01T03:55:26.043Z,99153.09
2022-09-01T03:57:53.160Z,99148.53
2022-09-01T04:00:19.745Z,99154.06
2022-09-01T04:02:46.399Z,99150.34
2022-09-01T04:05:19.143Z,99153.34
2022-09-01T04:07:45.557Z,99153.13
2022-09-01T04:10:12.017Z,99155.28
2022-09-01T04:12:39.469Z,99158.34
2022-09-01T04:15:06.462Z,99154.47
2022-09-01T04:17:32.972Z,99158.75
2022-09-01T04:19:59.862Z,99159.75
2022-09-01T04:22:26.300Z,99149.53
2022-09-01T04:24:52.818Z,99153.66
2022-09-01T04:27:19.333Z,99155.63
2022-09-01T04:29:45.735Z,99155.63
2022-09-01T04:32:12.589Z,99159.69
2022-09-01T04:34:39.101Z,99166.75
2022-09-01T04:37:05.521Z,99159.44
2022-09-01T04:39:32.023Z,99158.44
2022-09-01T04:41:58.528Z,99166.88
2022-09-01T04:44:24.970Z,99166.59
2022-09-01T04:46:52.078Z,99161.91
2022-09-01T04:49:19.182Z,99156.03
2022-09-01T04:51:48.037Z,99156.19
2022-09-01T04:54:18.058Z,99160.31
2022-09-01T04:56:44.883Z,99156.41
2022-09-01T04:59:11.569Z,99153.22
2022-09-01T05:01:38.026Z,99154.72
2022-09-01T05:04:04.522Z,99156.81
2022-09-01T05:06:30.938Z,99161.81
2022-09-01T05:08:57.373Z,99168.69
2022-09-01T05:11:23.935Z,99161.13
2022-09-01T05:13:50.713Z,99159.66
2022-09-01T05:16:19.430Z,99156.59
2022-09-01T05:18:49.445Z,99165.69
2022-09-01T05:21:17.555Z,99164.81
2022-09-01T05:23:44.105Z,99160.41
2022-09-01T05:26:11.916Z,99159.47
2022-09-01T05:28:38.642Z,99164.09
2022-09-01T05:31:05.164Z,99158.44
2022-09-01T05:33:31.587Z,99157.59
2022-09-01T05:35:58.272Z,99166.59
2022-09-01T05:38:25.683Z,99165.72
2022-09-01T05:40:52.643Z,99162.94
2022-09-01T05:43:19.337Z,99154.19
2022-09-01T05:46:05.653Z,99157.72
2022-09-01T05:48:32.583Z,99164.25
2022-09-01T05:50:59.037Z,99166.97
2022-09-01T05:53:25.643Z,99164.69
2022-09-01T05:55:53.627Z,99166.75
2022-09-01T05:58:20.161Z,99156.50
2022-09-01T06:00:46.758Z,99161.41
2022-09-01T06:03:13.915Z,99157.81
2022-09-01T06:05:40.469Z,99159.88
2022-09-01T06:08:09.242Z,99163.09
2022-09-01T06:10:35.979Z,99162.00
2022-09-01T06:13:02.642Z,99168.31
2022-09-01T06:15:29.575Z,99161.75
2022-09-01T06:17:56.299Z,99167.28
2022-09-01T06:20:23.169Z,99169.16
2022-09-01T06:22:49.584Z,99167.81
2022-09-01T06:25:16.366Z,99171.38
2022-09-01T06:27:42.820Z,99166.19
2022-09-01T06:30:09.240Z,99178.09
2022-09-01T06:32:35.789Z,99172.78
2022-09-01T06:35:02.447Z,99175.22
2022-09-01T06:37:31.895Z,99166.06
2022-09-01T06:39:58.782Z,99174.13
2022-09-01T06:42:25.313Z,99176.53
2022-09-01T06:44:51.789Z,99180.03
2022-09-01T06:47:18.409Z,99190.69
2022-09-01T06:49:45.075Z,99174.41
2022-09-01T06:52:11.970Z,99179.59
2022-09-01T06:54:38.568Z,99174.63
2022-09-01T07:02:38.030Z,99169.16
2022-09-01T07:05:04.795Z,99174.47
2022-09-01T07:10:22.715Z,99182.56
2022-09-01T07:18:22.561Z,99179.09
2022-09-01T07:24:10.674Z,99182.94
2022-09-01T07:26:26.339Z,99185.09
2022-09-01T07:29:01.088Z,99190.16
2022-09-01T07:38:04.389Z,99196.69
2022-09-01T07:39:48.176Z,99196.22
2022-09-01T07:39:57.205Z,99173.66
2022-09-01T07:56:01.046Z,99205.09
2022-09-01T07:58:27.435Z,99215.09
2022-09-01T08:00:53.833Z,99202.50
2022-09-01T08:03:20.835Z,99201.53
2022-09-01T08:05:47.343Z,99200.78
2022-09-01T08:08:23.697Z,99208.38
2022-09-01T08:10:52.962Z,99207.28
2022-09-01T08:13:20.811Z,99214.94
2022-09-01T08:18:50.556Z,99209.25
2022-09-01T08:21:16.994Z,99213.09
2022-09-01T08:23:44.367Z,99212.47
2022-09-01T08:26:11.303Z,99207.56
2022-09-01T08:28:37.725Z,99216.91
2022-09-01T08:31:08.984Z,99214.28
2022-09-01T08:33:37.438Z,99218.06
2022-09-01T08:36:04.028Z,99217.41
2022-09-01T08:38:30.417Z,99215.16
2022-09-01T08:40:57.475Z,99231.25
2022-09-01T08:43:24.265Z,99222.97
2022-09-01T08:45:50.760Z,99227.81
2022-09-01T08:51:11.579Z,99213.00
2022-09-01T08:53:41.257Z,99219.53
2022-09-01T08:56:07.700Z,99217.50
2022-09-01T08:58:34.109Z,99211.31
2022-09-01T09:01:00.589Z,99205.53
2022-09-01T09:03:27.500Z,99203.41
2022-09-01T09:05:54.201Z,99207.16
2022-09-01T09:08:20.848Z,99201.63
2022-09-01T09:10:47.673Z,99203.31
2022-09-01T09:13:14.095Z,99206.94
2022-09-01T09:15:40.615Z,99203.28
2022-09-01T09:18:10.367Z,99204.09
2022-09-01T09:20:54.111Z,99198.34
2022-09-01T09:23:21.630Z,99186.78
2022-09-01T09:25:50.587Z,99192.41
2022-09-01T09:28:16.981Z,99199.72
2022-09-01T09:30:43.768Z,99191.31
2022-09-01T09:33:47.726Z,99193.53
2022-09-01T09:35:56.990Z,99187.25
2022-09-01T09:38:24.390Z,99200.91
2022-09-01T09:41:13.862Z,99205.78
2022-09-01T09:43:37.552Z,99191.66
2022-09-01T09:46:23.302Z,99192.56
2022-09-01T09:48:51.320Z,99195.09
2022-09-01T09:51:17.727Z,99196.28
2022-09-01T09:53:44.372Z,99200.63
2022-09-01T09:56:10.835Z,99186.16
2022-09-01T09:58:37.490Z,99193.34
2022-09-01T10:01:04.059Z,99187.94
2022-09-01T10:03:31.745Z,99189.78
2022-09-01T10:05:58.117Z,99188.13
2022-09-01T10:08:24.534Z,99188.94
2022-09-01T10:10:58.481Z,99186.97
2022-09-01T10:13:25.917Z,99188.66
2022-09-01T10:15:54.321Z,99182.84
2022-09-01T10:18:28.387Z,99186.66
2022-09-01T10:20:55.695Z,99191.44
2022-09-01T10:23:22.472Z,99184.88
2022-09-01T10:25:49.592Z,99177.44
2022-09-01T10:28:20.686Z,99194.25
2022-09-01T10:30:47.615Z,99191.22
2022-09-01T10:33:20.067Z,99200.72
2022-09-01T10:35:48.705Z,99191.38
2022-09-01T10:38:16.015Z,99188.72
2022-09-01T10:40:48.684Z,99176.97
2022-09-01T10:43:15.615Z,99181.66
2022-09-01T10:45:42.134Z,99197.06
2022-09-01T10:48:13.044Z,99184.78
2022-09-01T10:50:40.032Z,99180.28
2022-09-01T10:53:07.490Z,99174.38
2022-09-01T10:55:35.001Z,99157.03
2022-09-01T10:59:30.386Z,99161.53
2022-09-01T11:03:47.879Z,99180.75
2022-09-01T11:06:18.337Z,99181.53
2022-09-01T11:08:50.318Z,99163.88
2022-09-01T11:11:17.685Z,99163.78
2022-09-01T11:13:49.584Z,99162.72
2022-09-01T11:16:45.484Z,99167.09
2022-09-01T11:19:02.929Z,99155.63
2022-09-01T11:21:29.655Z,99164.19
2022-09-01T11:23:56.297Z,99165.16
2022-09-01T11:26:22.763Z,99174.31
2022-09-01T11:28:49.389Z,99172.88
2022-09-01T11:31:17.035Z,99162.91
2022-09-01T11:33:43.674Z,99166.78
2022-09-01T11:36:10.893Z,99161.22
2022-09-01T11:38:38.981Z,99156.19
2022-09-01T11:41:05.904Z,99164.69
2022-09-01T11:43:32.845Z,99166.63
2022-09-01T11:45:59.508Z,99164.19
2022-09-01T11:48:26.129Z,99163.78
2022-09-01T11:50:52.713Z,99162.91
2022-09-01T11:53:19.362Z,99165.44
2022-09-01T11:55:49.011Z,99163.84
2022-09-01T11:58:17.922Z,99175.44
2022-09-01T12:00:44.615Z,99157.28
2022-09-01T12:03:11.122Z,99148.53
2022-09-01T12:05:38.162Z,99149.13
2022-09-01T12:08:04.825Z,99147.63
2022-09-01T12:10:33.172Z,99149.63
2022-09-01T12:12:59.861Z,99140.97
2022-09-01T12:15:26.322Z,99147.78
2022-09-01T12:17:53.246Z,99157.06
2022-09-01T12:20:20.171Z,99138.84
2022-09-01T12:22:48.829Z,99154.00
2022-09-01T12:25:15.276Z,99144.13
2022-09-01T12:27:42.047Z,99150.88
2022-09-01T12:30:09.382Z,99144.84
2022-09-01T12:32:35.782Z,99137.19
2022-09-01T12:35:09.347Z,99150.16
2022-09-01T12:37:39.566Z,99150.31
2022-09-01T12:40:07.552Z,99156.94
2022-09-01T12:42:40.853Z,99150.53
2022-09-01T12:45:09.169Z,99153.78
2022-09-01T12:47:36.363Z,99170.38
2022-09-01T12:50:03.426Z,99147.56
2022-09-01T12:52:30.307Z,99152.19
2022-09-01T12:54:56.747Z,99149.94
2022-09-01T12:57:23.198Z,99136.38
2022-09-01T12:59:49.850Z,99148.81
2022-09-01T13:02:19.755Z,99144.13
2022-09-01T13:04:46.290Z,99158.75
2022-09-01T13:07:15.364Z,99165.03
2022-09-01T13:09:41.841Z,99163.88
2022-09-01T13:12:09.359Z,99153.50
2022-09-01T13:14:36.148Z,99157.94
2022-09-01T13:17:03.652Z,99144.94
2022-09-01T13:19:30.713Z,99146.38
2022-09-01T13:21:57.290Z,99150.34
2022-09-01T13:24:28.078Z,99135.59
2022-09-01T13:29:45.390Z,99146.13
2022-09-01T13:32:20.719Z,99150.78
2022-09-01T13:34:51.804Z,99156.00
2022-09-01T13:37:18.541Z,99153.78
2022-09-01T13:39:45.693Z,99153.41
2022-09-01T13:42:12.558Z,99153.50
2022-09-01T13:44:39.280Z,99157.50
2022-09-01T13:50:07.110Z,99143.44
2022-09-01T13:52:36.010Z,99142.25
2022-09-01T13:55:02.648Z,99144.31
2022-09-01T13:57:32.867Z,99126.59
2022-09-01T14:00:03.346Z,99138.44
2022-09-01T14:02:30.160Z,99148.59
2022-09-01T14:04:56.974Z,99157.56
2022-09-01T14:07:26.583Z,99158.53
2022-09-01T14:09:53.243Z,99151.91
2022-09-01T14:12:19.730Z,99151.38
2022-09-01T14:17:33.690Z,99152.69
2022-09-01T14:20:00.211Z,99163.91
2022-09-01T14:22:27.073Z,99155.72
2022-09-01T14:24:53.713Z,99141.31
2022-09-01T14:27:20.478Z,99140.00
2022-09-01T14:32:12.082Z,99139.56
2022-09-01T14:34:38.570Z,99143.84
2022-09-01T14:37:05.088Z,99139.66
2022-09-01T14:39:35.612Z,99134.06
2022-09-01T14:42:02.393Z,99129.63
2022-09-01T14:44:28.851Z,99134.31
2022-09-01T14:46:55.463Z,99133.16
2022-09-01T14:49:22.585Z,99130.16
2022-09-01T14:54:45.308Z,99127.97
2022-09-01T14:59:58.178Z,99137.03
2022-09-01T15:02:24.622Z,99128.88
2022-09-01T15:04:51.101Z,99136.22
2022-09-01T15:07:17.797Z,99149.22
2022-09-01T15:09:44.255Z,99142.09
2022-09-01T15:12:10.781Z,99141.09
2022-09-01T15:14:37.673Z,99143.09
2022-09-01T15:17:04.157Z,99145.31
2022-09-01T15:19:31.046Z,99144.84
2022-09-01T15:22:03.419Z,99141.50
2022-09-01T15:24:30.215Z,99144.56
2022-09-01T15:26:56.698Z,99150.56
2022-09-01T15:29:23.500Z,99154.28
2022-09-01T15:31:50.075Z,99155.31
2022-09-01T15:34:16.522Z,99156.13
2022-09-01T15:36:43.718Z,99147.31
2022-09-01T15:39:10.603Z,99146.47
2022-09-01T15:41:37.555Z,99140.59
2022-09-01T15:44:04.299Z,99144.59
2022-09-01T15:46:30.764Z,99153.50
2022-09-01T15:48:57.276Z,99154.81
2022-09-01T15:51:23.897Z,99151.34
2022-09-01T15:53:53.625Z,99162.41
2022-09-01T15:56:20.528Z,99152.97
2022-09-01T15:59:01.131Z,99158.88
2022-09-01T16:01:28.965Z,99154.09
2022-09-01T16:03:55.837Z,99151.50
2022-09-01T16:06:22.379Z,99150.41
2022-09-01T16:08:49.888Z,99152.06
2022-09-01T16:11:19.718Z,99157.34
2022-09-01T16:13:46.775Z,99157.91
2022-09-01T16:16:13.860Z,99164.09
2022-09-01T16:18:40.649Z,99152.44
2022-09-01T16:21:07.264Z,99175.13
2022-09-01T16:23:33.770Z,99170.22
2022-09-01T16:26:00.794Z,99163.94
2022-09-01T16:28:30.374Z,99166.38
2022-09-01T16:30:56.910Z,99166.63
2022-09-01T16:33:23.685Z,99162.19
2022-09-01T16:35:50.091Z,99166.97
2022-09-01T16:38:16.549Z,99163.28
2022-09-01T16:40:43.396Z,99171.28
2022-09-01T16:43:10.020Z,99172.78
2022-09-01T16:45:40.895Z,99168.75
2022-09-01T16:48:09.555Z,99164.81
2022-09-01T16:50:35.982Z,99178.84
2022-09-01T16:53:02.456Z,99177.09
2022-09-01T16:55:29.214Z,99173.31
2022-09-01T16:57:59.168Z,99180.03
2022-09-01T17:00:25.807Z,99170.13
2022-09-01T17:02:52.458Z,99180.84
2022-09-01T17:05:19.011Z,99173.75
2022-09-01T17:07:45.493Z,99187.91
2022-09-01T17:10:12.599Z,99180.50
2022-09-01T17:12:39.215Z,99175.78
2022-09-01T17:15:05.793Z,99184.28
2022-09-01T17:17:32.555Z,99174.44
2022-09-01T17:19:59.479Z,99188.00
2022-09-01T17:22:25.893Z,99187.47
2022-09-01T17:24:52.415Z,99186.97
2022-09-01T17:27:18.791Z,99186.38
2022-09-01T17:29:45.225Z,99190.75
2022-09-01T17:32:12.334Z,99200.00
2022-09-01T17:34:38.807Z,99191.78
2022-09-01T17:37:08.404Z,99203.22
2022-09-01T17:39:35.117Z,99211.91
2022-09-01T17:42:01.501Z,99213.63
2022-09-01T17:44:29.960Z,99220.97
2022-09-01T17:46:56.726Z,99217.66
2022-09-01T17:49:23.659Z,99228.31
2022-09-01T17:51:50.142Z,99217.56
2022-09-01T17:54:16.831Z,99223.03
2022-09-01T17:56:43.198Z,99223.19
2022-09-01T17:59:09.610Z,99236.75
2022-09-01T18:01:36.109Z,99240.44
2022-09-01T18:04:02.516Z,99242.97
2022-09-01T18:06:32.744Z,99255.97
2022-09-01T18:08:59.240Z,99254.75
2022-09-01T18:11:25.657Z,99259.63
2022-09-01T18:13:53.833Z,99266.56
2022-09-01T18:16:20.914Z,99262.41
2022-09-01T18:18:47.456Z,99270.56
2022-09-01T18:21:13.890Z,99275.66
2022-09-01T18:23:40.394Z,99280.38
2022-09-01T18:26:06.932Z,99281.63
2022-09-01T18:28:35.519Z,99271.56
2022-09-01T18:31:02.149Z,99281.94
2022-09-01T18:33:28.617Z,99286.69
2022-09-01T18:35:55.019Z,99287.13
2022-09-01T18:38:21.785Z,99285.78
2022-09-01T18:40:48.394Z,99284.59
2022-09-01T18:43:14.906Z,99293.41
2022-09-01T18:45:41.551Z,99286.88
2022-09-01T18:48:07.963Z,99292.16
2022-09-01T18:50:34.417Z,99300.19
2022-09-01T18:53:01.479Z,99291.72
2022-09-01T18:55:28.330Z,99295.69
2022-09-01T18:57:54.981Z,99303.53
2022-09-01T19:00:27.973Z,99305.31
2022-09-01T19:02:58.568Z,99302.38
2022-09-01T19:05:28.077Z,99312.72
2022-09-01T19:07:57.920Z,99315.72
2022-09-01T19:10:26.346Z,99311.66
2022-09-01T19:12:53.310Z,99315.06
2022-09-01T19:15:21.168Z,99314.38
2022-09-01T19:17:49.015Z,99317.91
2022-09-01T19:20:15.961Z,99314.50
2022-09-01T19:22:42.810Z,99319.31
2022-09-01T19:25:10.719Z,99317.28
2022-09-01T19:27:38.137Z,99316.44
2022-09-01T19:30:05.012Z,99314.34
2022-09-01T19:32:31.484Z,99320.56
2022-09-01T19:34:59.415Z,99318.63
2022-09-01T19:37:27.877Z,99320.50
2022-09-01T19:39:54.773Z,99311.63
2022-09-01T19:42:21.913Z,99314.97
2022-09-01T19:44:48.700Z,99315.06
2022-09-01T19:47:15.468Z,99322.22
2022-09-01T19:52:09.237Z,99316.56
2022-09-01T19:54:35.738Z,99311.94
2022-09-01T19:57:02.419Z,99311.41
2022-09-01T19:59:30.539Z,99308.16
2022-09-01T20:01:59.988Z,99309.75
2022-09-01T20:04:26.966Z,99312.09
2022-09-01T20:06:55.296Z,99309.91
2022-09-01T20:09:21.738Z,99307.56
2022-09-01T20:11:48.338Z,99303.16
2022-09-01T20:14:17.633Z,99319.59
2022-09-01T20:16:44.274Z,99311.78
2022-09-01T20:19:11.152Z,99318.03
2022-09-01T20:21:38.793Z,99310.00
2022-09-01T20:24:09.458Z,99320.09
2022-09-01T20:26:37.261Z,99311.59
2022-09-01T20:29:03.697Z,99319.56
2022-09-01T20:31:30.760Z,99312.69
2022-09-01T20:33:57.294Z,99312.25
2022-09-01T20:36:23.884Z,99314.75
2022-09-01T20:38:50.389Z,99323.25
2022-09-01T20:41:17.351Z,99322.88
2022-09-01T20:43:43.811Z,99324.31
2022-09-01T20:46:10.321Z,99326.56
2022-09-01T20:48:38.000Z,99328.97
2022-09-01T20:51:04.618Z,99325.75
2022-09-01T20:53:31.267Z,99330.44
2022-09-01T20:55:58.089Z,99331.16
2022-09-01T20:58:26.768Z,99326.13
2022-09-01T21:00:55.834Z,99332.38
2022-09-01T21:03:34.055Z,99339.16
2022-09-01T21:06:01.149Z,99332.88
2022-09-01T21:08:27.958Z,99327.25
2022-09-01T21:10:54.427Z,99325.38
2022-09-01T21:13:24.821Z,99328.38
2022-09-01T21:15:52.233Z,99338.69
2022-09-01T21:18:18.745Z,99332.38
2022-09-01T21:20:46.425Z,99331.66
2022-09-01T21:23:13.268Z,99333.84
2022-09-01T21:25:39.936Z,99333.09
2022-09-01T21:28:06.438Z,99330.06
2022-09-01T21:30:34.610Z,99328.81
2022-09-01T21:33:01.141Z,99326.28
2022-09-01T21:35:27.950Z,99323.81
2022-09-01T21:37:56.465Z,99320.56
2022-09-01T21:40:23.109Z,99324.16
2022-09-01T21:42:50.633Z,99324.63
2022-09-01T21:45:17.351Z,99325.38
2022-09-01T21:47:44.893Z,99320.25
2022-09-01T21:50:11.441Z,99325.34
2022-09-01T21:52:40.403Z,99321.19
2022-09-01T21:55:07.064Z,99314.84
2022-09-01T21:57:33.655Z,99310.72
2022-09-01T22:00:02.083Z,99307.97
2022-09-01T22:02:28.876Z,99306.94
2022-09-01T22:04:55.476Z,99312.75
2022-09-01T22:07:23.087Z,99313.47
2022-09-01T22:09:49.605Z,99310.09
2022-09-01T22:12:16.105Z,99310.63
2022-09-01T22:14:42.721Z,99302.13
2022-09-01T22:17:09.190Z,99304.25
2022-09-01T22:19:37.924Z,99307.44
2022-09-01T22:22:07.821Z,99300.41
2022-09-01T22:24:34.636Z,99296.47
2022-09-01T22:27:01.166Z,99293.81
2022-09-01T22:29:27.864Z,99296.56
2022-09-01T22:31:55.708Z,99285.47
2022-09-01T22:34:22.865Z,99289.50
2022-09-01T22:36:50.651Z,99293.63
2022-09-01T22:39:17.405Z,99295.53
2022-09-01T22:41:50.418Z,99288.97
2022-09-01T22:44:25.573Z,99290.91
2022-09-01T22:46:52.200Z,99278.53
2022-09-01T22:49:20.946Z,99281.91
2022-09-01T22:51:53.319Z,99279.41
2022-09-01T22:54:19.868Z,99287.03
2022-09-01T22:56:46.401Z,99288.31
2022-09-01T22:59:13.693Z,99278.09
2022-09-01T23:01:40.876Z,99277.38
2022-09-01T23:04:07.465Z,99271.97
2022-09-01T23:06:41.970Z,99270.00
2022-09-01T23:09:10.071Z,99272.19
2022-09-01T23:11:36.803Z,99261.06
2022-09-01T23:14:04.499Z,99270.19
2022-09-01T23:16:31.022Z,99276.00
2022-09-01T23:18:57.585Z,99271.66
2022-09-01T23:21:24.483Z,99259.78
2022-09-01T23:23:58.836Z,99261.72
2022-09-01T23:26:25.855Z,99263.31
2022-09-01T23:28:52.368Z,99261.09
2022-09-01T23:31:19.964Z,99259.16
2022-09-01T23:33:47.994Z,99261.34
2022-09-01T23:36:14.678Z,99261.66
2022-09-01T23:38:41.239Z,99260.44
2022-09-01T23:41:08.912Z,99251.00
2022-09-01T23:43:35.624Z,99251.41
2022-09-01T23:46:02.140Z,99258.81
2022-09-01T23:48:28.912Z,99247.69
2022-09-01T23:50:55.400Z,99253.03
2022-09-01T23:53:22.407Z,99248.47
2022-09-01T23:55:49.218Z,99249.72
2022-09-01T23:58:17.733Z,99252.00
